Time,TemperatureF,DewpointF,PressureIn,WindDirection,WindDirectionDegrees,WindSpeedMPH,WindSpeedGustMPH,Humidity,HourlyPrecipIn,Conditions,Clouds,dailyrainin,SolarRadiationWatts/m^2,SoftwareType,DateUTC
2013-08-19 00:01:00,63.4,59.5,30.10,South,172,2.3,2.3,87,0.00,CLR,,0.00,0.0,WeatherDisplay:10.37,2013-08-19 04:01:00,
2013-08-19 00:06:00,63.1,59.5,30.10,South,172,0.0,0.0,88,0.00,CLR,,0.00,0.0,WeatherDisplay:10.37,2013-08-19 04:06:00,
2013-08-19 00:11:00,62.9,59.3,30.10,South,172,0.0,0.0,88,0.00,CLR,,0.00,0.0,WeatherDisplay:10.37,2013-08-19 04:11:00,
2013-08-19 00:17:00,62.6,59.0,30.10,South,172,0.0,0.0,88,0.00,CLR,,0.00,0.0,WeatherDisplay:10.37,2013-08-19 04:17:00,
2013-08-19 00:22:00,62.3,59.0,30.10,South,172,0.0,0.0,89,0.00,CLR,,0.00,0.0,WeatherDisplay:10.37,2013-08-19 04:22:00,
2013-08-19 00:27:00,62.1,58.8,30.10,South,172,0.0,0.0,89,0.00,CLR,,0.00,0.0,WeatherDisplay:10.37,2013-08-19 04:27:00,
2013-08-19 00:32:00,61.9,58.9,30.10,South,172,0.0,0.0,90,0.00,CLR,,0.00,0.0,WeatherDisplay:10.37,2013-08-19 04:32:00,
2013-08-19 00:37:00,61.7,58.7,30.10,South,172,0.0,0.0,90,0.00,CLR,,0.00,0.0,WeatherDisplay:10.37,2013-08-19 04:37:00,
2013-08-19 00:42:00,61.5,58.8,30.10,South,172,0.0,0.0,91,0.00,CLR,,0.00,0.0,WeatherDisplay:10.37,2013-08-19 04:42:00,
2013-08-19 00:47:00,61.3,58.7,30.10,South,172,0.0,0.0,91,0.00,CLR,,0.00,0.0,WeatherDisplay:10.37,2013-08-19 04:47:00,
2013-08-19 00:52:00,61.1,58.5,30.09,South,172,0.0,0.0,91,0.00,CLR,,0.00,0.0,WeatherDisplay:10.37,2013-08-19 04:52:00,
2013-08-19 00:57:00,61.0,58.7,30.10,South,172,0.0,0.0,92,0.00,CLR,,0.00,0.0,WeatherDisplay:10.37,2013-08-19 04:57:00,
2013-08-19 01:02:00,60.8,58.5,30.09,South,172,0.0,0.0,92,0.00,CLR,,0.00,0.0,WeatherDisplay:10.37,2013-08-19 05:02:00,
2013-08-19 01:07:00,60.7,58.4,30.10,South,172,0.0,0.0,92,0.00,CLR,,0.00,0.0,WeatherDisplay:10.37,2013-08-19 05:07:00,
2013-08-19 01:12:00,60.5,58.2,30.10,South,172,0.0,0.0,92,0.00,CLR,,0.00,0.0,WeatherDisplay:10.37,2013-08-19 05:12:00,
2013-08-19 01:17:00,60.4,58.4,30.10,South,172,0.0,0.0,93,0.00,CLR,,0.00,0.0,WeatherDisplay:10.37,2013-08-19 05:17:00,
2013-08-19 01:22:00,60.2,57.9,30.10,South,172,0.0,0.0,92,0.00,CLR,,0.00,0.0,WeatherDisplay:10.37,2013-08-19 05:22:00,
2013-08-19 01:27:00,60.1,58.1,30.09,South,172,0.0,0.0,93,0.00,CLR,,0.00,0.0,WeatherDisplay:10.37,2013-08-19 05:27:00,
2013-08-19 01:32:00,60.0,58.0,30.09,South,172,0.0,0.0,93,0.00,CLR,,0.00,0.0,WeatherDisplay:10.37,2013-08-19 05:32:00,
2013-08-19 01:37:00,59.8,57.8,30.09,South,172,0.0,0.0,93,0.00,CLR,,0.00,0.0,WeatherDisplay:10.37,2013-08-19 05:37:00,
2013-08-19 01:42:00,59.7,57.7,30.09,South,172,0.0,0.0,93,0.00,CLR,,0.00,0.0,WeatherDisplay:10.37,2013-08-19 05:42:00,
2013-08-19 01:47:00,59.6,57.6,30.09,South,172,0.0,0.0,93,0.00,CLR,,0.00,0.0,WeatherDisplay:10.37,2013-08-19 05:47:00,
2013-08-19 01:52:00,59.6,57.9,30.09,South,172,0.0,0.0,94,0.00,CLR,,0.00,0.0,WeatherDisplay:10.37,2013-08-19 05:52:00,
2013-08-19 01:57:00,59.4,57.7,30.09,South,172,0.0,0.0,94,0.00,CLR,,0.00,0.0,WeatherDisplay:10.37,2013-08-19 05:57:00,
2013-08-19 02:02:00,59.2,57.2,30.09,South,172,0.0,0.0,93,0.00,CLR,,0.00,0.0,WeatherDisplay:10.37,2013-08-19 06:02:00,
2013-08-19 02:07:00,58.9,56.9,30.09,South,172,0.0,0.0,93,0.00,CLR,,0.00,0.0,WeatherDisplay:10.37,2013-08-19 06:07:00,
2013-08-19 02:12:00,58.8,57.1,30.09,South,172,0.0,0.0,94,0.00,CLR,,0.00,0.0,WeatherDisplay:10.37,2013-08-19 06:12:00,
2013-08-19 02:17:00,58.7,57.0,30.09,South,172,0.0,0.0,94,0.00,CLR,,0.00,0.0,WeatherDisplay:10.37,2013-08-19 06:17:00,
2013-08-19 02:22:00,58.4,56.4,30.09,South,172,0.0,0.0,93,0.00,CLR,,0.00,0.0,WeatherDisplay:10.37,2013-08-19 06:22:00,
2013-08-19 02:27:00,58.2,56.5,30.09,South,172,0.0,0.0,94,0.00,CLR,,0.00,0.0,WeatherDisplay:10.37,2013-08-19 06:27:00,
2013-08-19 02:32:00,58.0,56.3,30.09,South,172,0.0,0.0,94,0.00,CLR,,0.00,0.0,WeatherDisplay:10.37,2013-08-19 06:32:00,
2013-08-19 02:37:00,57.9,56.2,30.09,South,172,0.0,0.0,94,0.00,CLR,,0.00,0.0,WeatherDisplay:10.37,2013-08-19 06:37:00,
2013-08-19 02:42:00,57.8,56.1,30.09,South,172,0.0,0.0,94,0.00,CLR,,0.00,0.0,WeatherDisplay:10.37,2013-08-19 06:42:00,
2013-08-19 02:47:00,57.8,56.4,30.09,South,172,0.0,0.0,95,0.00,CLR,,0.00,0.0,WeatherDisplay:10.37,2013-08-19 06:47:00,
2013-08-19 02:52:00,57.7,56.0,30.09,South,172,0.0,0.0,94,0.00,CLR,,0.00,0.0,WeatherDisplay:10.37,2013-08-19 06:52:00,
2013-08-19 02:57:00,57.5,55.8,30.09,South,172,0.0,0.0,94,0.00,CLR,,0.00,0.0,WeatherDisplay:10.37,2013-08-19 06:57:00,
2013-08-19 03:02:00,57.3,55.9,30.09,South,172,0.0,0.0,95,0.00,CLR,,0.00,0.0,WeatherDisplay:10.37,2013-08-19 07:02:00,
2013-08-19 03:07:00,57.3,55.9,30.09,South,172,0.0,0.0,95,0.00,CLR,,0.00,0.0,WeatherDisplay:10.37,2013-08-19 07:07:00,
2013-08-19 03:12:00,57.1,55.7,30.09,South,172,0.0,0.0,95,0.00,CLR,,0.00,0.0,WeatherDisplay:10.37,2013-08-19 07:12:00,
2013-08-19 03:17:00,56.9,55.5,30.09,South,172,0.0,0.0,95,0.00,CLR,,0.00,0.0,WeatherDisplay:10.37,2013-08-19 07:17:00,
2013-08-19 03:22:00,56.8,55.1,30.08,South,172,0.0,0.0,94,0.00,CLR,,0.00,0.0,WeatherDisplay:10.37,2013-08-19 07:22:00,
2013-08-19 03:27:00,56.6,55.2,30.08,South,172,0.0,0.0,95,0.00,CLR,,0.00,0.0,WeatherDisplay:10.37,2013-08-19 07:27:00,
2013-08-19 03:32:00,56.5,55.1,30.08,South,172,0.0,0.0,95,0.00,CLR,,0.00,0.0,WeatherDisplay:10.37,2013-08-19 07:32:00,
2013-08-19 03:37:00,56.4,55.0,30.08,South,172,0.0,0.0,95,0.00,CLR,,0.00,0.0,WeatherDisplay:10.37,2013-08-19 07:37:00,
2013-08-19 03:42:00,56.4,55.0,30.08,South,172,1.2,0.0,95,0.00,CLR,,0.00,0.0,WeatherDisplay:10.37,2013-08-19 07:42:00,
2013-08-19 03:47:00,56.3,54.9,30.09,South,172,0.0,0.0,95,0.00,CLR,,0.00,0.0,WeatherDisplay:10.37,2013-08-19 07:47:00,
2013-08-19 03:52:00,56.3,54.9,30.08,South,172,0.0,0.0,95,0.00,CLR,,0.00,0.0,WeatherDisplay:10.37,2013-08-19 07:52:00,
2013-08-19 03:57:00,56.4,55.3,30.08,South,172,0.0,0.0,96,0.00,CLR,,0.00,0.0,WeatherDisplay:10.37,2013-08-19 07:57:00,
2013-08-19 04:02:00,56.4,55.3,30.08,South,172,0.0,0.0,96,0.00,CLR,,0.00,0.0,WeatherDisplay:10.37,2013-08-19 08:02:00,
2013-08-19 04:07:00,56.4,55.3,30.08,South,172,0.0,0.0,96,0.00,CLR,,0.00,0.0,WeatherDisplay:10.37,2013-08-19 08:07:00,
2013-08-19 04:12:00,56.3,54.9,30.08,South,172,0.0,0.0,95,0.00,CLR,,0.00,0.0,WeatherDisplay:10.37,2013-08-19 08:12:00,
2013-08-19 04:17:00,56.2,54.8,30.08,South,172,0.0,0.0,95,0.00,CLR,,0.00,0.0,WeatherDisplay:10.37,2013-08-19 08:17:00,
2013-08-19 04:22:00,56.2,55.1,30.08,South,172,0.0,0.0,96,0.00,CLR,,0.00,0.0,WeatherDisplay:10.37,2013-08-19 08:22:00,
2013-08-19 04:27:00,56.2,55.1,30.08,South,172,0.0,0.0,96,0.00,CLR,,0.00,0.0,WeatherDisplay:10.37,2013-08-19 08:27:00,
2013-08-19 04:32:00,56.3,55.2,30.08,South,172,0.0,0.0,96,0.00,CLR,,0.00,0.0,WeatherDisplay:10.37,2013-08-19 08:32:00,
2013-08-19 04:37:00,56.3,55.2,30.08,South,172,0.0,0.0,96,0.00,CLR,,0.00,0.0,WeatherDisplay:10.37,2013-08-19 08:37:00,
2013-08-19 04:42:00,56.3,55.2,30.08,South,172,0.0,0.0,96,0.00,CLR,,0.00,0.0,WeatherDisplay:10.37,2013-08-19 08:42:00,
2013-08-19 04:47:00,56.2,55.1,30.08,South,172,0.0,0.0,96,0.00,CLR,,0.00,0.0,WeatherDisplay:10.37,2013-08-19 08:47:00,
2013-08-19 04:52:00,56.0,54.9,30.08,South,172,0.0,0.0,96,0.00,CLR,,0.00,0.0,WeatherDisplay:10.37,2013-08-19 08:52:00,
2013-08-19 04:57:00,55.9,54.8,30.08,South,172,0.0,0.0,96,0.00,CLR,,0.00,0.0,WeatherDisplay:10.37,2013-08-19 08:57:00,
2013-08-19 05:02:00,55.8,54.7,30.08,South,172,0.0,0.0,96,0.00,CLR,,0.00,0.0,WeatherDisplay:10.37,2013-08-19 09:02:00,
2013-08-19 05:07:00,55.7,54.6,30.08,South,172,0.0,0.0,96,0.00,CLR,,0.00,0.0,WeatherDisplay:10.37,2013-08-19 09:07:00,
2013-08-19 05:12:00,55.5,54.4,30.08,South,172,0.0,0.0,96,0.00,CLR,,0.00,0.0,WeatherDisplay:10.37,2013-08-19 09:12:00,
2013-08-19 05:17:00,55.5,54.4,30.08,South,172,0.0,0.0,96,0.00,CLR,,0.00,0.0,WeatherDisplay:10.37,2013-08-19 09:17:00,
2013-08-19 05:22:00,55.4,54.3,30.08,South,172,0.0,0.0,96,0.00,CLR,,0.00,0.0,WeatherDisplay:10.37,2013-08-19 09:22:00,
2013-08-19 05:27:00,55.4,54.3,30.08,South,172,0.0,0.0,96,0.00,CLR,,0.00,0.0,WeatherDisplay:10.37,2013-08-19 09:27:00,
2013-08-19 05:32:00,55.3,54.2,30.08,South,172,0.0,0.0,96,0.00,CLR,,0.00,0.0,WeatherDisplay:10.37,2013-08-19 09:32:00,
2013-08-19 05:37:00,55.1,54.0,30.08,South,172,1.2,1.2,96,0.00,CLR,,0.00,0.0,WeatherDisplay:10.37,2013-08-19 09:37:00,
2013-08-19 05:42:00,55.2,54.1,30.08,South,172,0.0,0.0,96,0.00,CLR,,0.00,0.0,WeatherDisplay:10.37,2013-08-19 09:42:00,
2013-08-19 05:47:00,55.1,54.0,30.08,South,172,0.0,0.0,96,0.00,CLR,,0.00,0.0,WeatherDisplay:10.37,2013-08-19 09:47:00,
2013-08-19 05:52:00,55.0,53.9,30.09,South,172,0.0,0.0,96,0.00,CLR,,0.00,0.0,WeatherDisplay:10.37,2013-08-19 09:52:00,
2013-08-19 05:57:00,54.9,53.8,30.09,South,172,0.0,0.0,96,0.00,CLR,,0.00,0.0,WeatherDisplay:10.37,2013-08-19 09:57:00,
2013-08-19 06:02:00,54.9,53.8,30.09,South,172,1.2,1.2,96,0.00,CLR,,0.00,0.0,WeatherDisplay:10.37,2013-08-19 10:02:00,
2013-08-19 06:07:00,54.9,53.8,30.09,South,172,0.0,0.0,96,0.00,CLR,,0.00,0.0,WeatherDisplay:10.37,2013-08-19 10:07:00,
2013-08-19 06:12:00,54.8,53.7,30.09,South,172,1.0,0.0,96,0.00,CLR,,0.00,0.0,WeatherDisplay:10.37,2013-08-19 10:12:00,
2013-08-19 06:17:00,54.7,53.6,30.09,South,172,1.2,0.0,96,0.00,CLR,,0.00,0.0,WeatherDisplay:10.37,2013-08-19 10:17:00,
2013-08-19 06:22:00,54.7,53.6,30.09,South,172,0.0,0.0,96,0.00,CLR,,0.00,0.0,WeatherDisplay:10.37,2013-08-19 10:22:00,
2013-08-19 06:27:00,54.6,53.5,30.09,South,172,0.0,0.0,96,0.00,CLR,,0.00,0.0,WeatherDisplay:10.37,2013-08-19 10:27:00,
2013-08-19 06:32:00,54.6,53.5,30.09,South,172,1.0,1.0,96,0.00,CLR,,0.00,0.0,WeatherDisplay:10.37,2013-08-19 10:32:00,
2013-08-19 06:37:00,54.7,53.6,30.09,South,172,0.0,0.0,96,0.00,CLR,,0.00,0.0,WeatherDisplay:10.37,2013-08-19 10:37:00,
2013-08-19 06:42:00,54.7,53.6,30.09,South,172,0.0,0.0,96,0.00,CLR,,0.00,0.0,WeatherDisplay:10.37,2013-08-19 10:42:00,
2013-08-19 06:47:00,54.6,53.5,30.09,South,172,0.0,0.0,96,0.00,CLR,,0.00,0.0,WeatherDisplay:10.37,2013-08-19 10:47:00,
2013-08-19 06:52:00,54.6,53.5,30.09,South,172,0.0,0.0,96,0.00,CLR,,0.00,5.0,WeatherDisplay:10.37,2013-08-19 10:52:00,
2013-08-19 06:57:00,54.5,53.4,30.09,South,172,0.0,0.0,96,0.00,CLR,,0.00,7.0,WeatherDisplay:10.37,2013-08-19 10:57:00,
2013-08-19 07:02:00,54.5,53.4,30.09,South,172,1.2,1.2,96,0.00,CLR,,0.00,11.0,WeatherDisplay:10.37,2013-08-19 11:02:00,
2013-08-19 07:07:00,54.6,53.8,30.09,South,172,0.0,0.0,97,0.00,CLR,,0.00,12.0,WeatherDisplay:10.37,2013-08-19 11:07:00,
2013-08-19 07:12:00,54.6,53.8,30.10,South,172,0.0,0.0,97,0.00,CLR,,0.00,14.0,WeatherDisplay:10.37,2013-08-19 11:12:00,
2013-08-19 07:17:00,54.6,53.8,30.10,South,172,0.0,0.0,97,0.00,CLR,,0.00,18.0,WeatherDisplay:10.37,2013-08-19 11:17:00,
2013-08-19 07:22:00,54.7,53.9,30.10,South,172,1.0,0.0,97,0.00,CLR,,0.00,19.0,WeatherDisplay:10.37,2013-08-19 11:22:00,
2013-08-19 07:27:00,54.9,54.1,30.10,South,172,1.2,0.0,97,0.00,CLR,,0.00,21.0,WeatherDisplay:10.37,2013-08-19 11:27:00,
2013-08-19 07:32:00,55.1,54.3,30.10,South,172,0.0,0.0,97,0.00,CLR,,0.00,23.0,WeatherDisplay:10.37,2013-08-19 11:32:00,
2013-08-19 07:37:00,55.3,54.5,30.10,South,172,0.0,0.1,97,0.00,CLR,,0.00,23.0,WeatherDisplay:10.37,2013-08-19 11:37:00,
2013-08-19 07:42:00,55.5,54.7,30.10,South,172,0.0,0.0,97,0.00,CLR,,0.00,28.0,WeatherDisplay:10.37,2013-08-19 11:42:00,
2013-08-19 07:47:00,55.8,55.0,30.10,South,172,0.0,0.0,97,0.00,CLR,,0.00,30.0,WeatherDisplay:10.37,2013-08-19 11:47:00,
2013-08-19 07:52:00,55.9,55.1,30.10,South,172,1.2,0.0,97,0.00,CLR,,0.00,32.0,WeatherDisplay:10.37,2013-08-19 11:52:00,
2013-08-19 07:57:00,56.2,55.4,30.10,South,172,2.3,2.3,97,0.00,CLR,,0.00,35.0,WeatherDisplay:10.37,2013-08-19 11:57:00,
2013-08-19 08:02:00,56.8,56.0,30.10,South,172,2.3,2.3,97,0.00,OVC,,0.00,39.0,WeatherDisplay:10.37,2013-08-19 12:02:00,
2013-08-19 08:07:00,57.3,56.7,30.10,South,172,1.2,1.2,98,0.00,OVC,,0.00,44.0,WeatherDisplay:10.37,2013-08-19 12:07:00,
2013-08-19 08:12:00,57.6,56.8,30.10,South,172,0.0,0.0,97,0.00,OVC,,0.00,47.0,WeatherDisplay:10.37,2013-08-19 12:12:00,
2013-08-19 08:17:00,58.0,57.4,30.10,South,172,0.0,0.0,98,0.00,OVC,,0.00,51.0,WeatherDisplay:10.37,2013-08-19 12:17:00,
2013-08-19 08:22:00,58.4,57.8,30.10,South,172,1.2,1.2,98,0.00,OVC,,0.00,49.0,WeatherDisplay:10.37,2013-08-19 12:22:00,
2013-08-19 08:27:00,58.8,58.2,30.10,South,172,1.2,0.0,98,0.00,OVC,,0.00,53.0,WeatherDisplay:10.37,2013-08-19 12:27:00,
2013-08-19 08:32:00,59.3,58.7,30.10,South,172,1.2,1.2,98,0.00,OVC,,0.00,56.0,WeatherDisplay:10.37,2013-08-19 12:32:00,
2013-08-19 08:37:00,59.8,59.2,30.10,South,172,0.0,0.0,98,0.00,OVC,,0.00,65.0,WeatherDisplay:10.37,2013-08-19 12:37:00,
2013-08-19 08:42:00,60.3,59.7,30.10,South,172,1.2,0.0,98,0.00,OVC,,0.00,65.0,WeatherDisplay:10.37,2013-08-19 12:42:00,
2013-08-19 08:47:00,60.7,60.1,30.09,South,172,2.0,2.0,98,0.00,OVC,,0.00,84.0,WeatherDisplay:10.37,2013-08-19 12:47:00,
2013-08-19 08:52:00,61.2,60.6,30.10,South,172,1.2,1.2,98,0.00,OVC,,0.00,81.0,WeatherDisplay:10.37,2013-08-19 12:52:00,
2013-08-19 08:57:00,61.7,61.1,30.10,South,172,2.3,2.3,98,0.00,OVC,,0.00,69.0,WeatherDisplay:10.37,2013-08-19 12:57:00,
2013-08-19 09:02:00,62.2,61.6,30.09,South,172,1.2,1.2,98,0.00,OVC,,0.00,72.0,WeatherDisplay:10.37,2013-08-19 13:02:00,
2013-08-19 09:07:00,62.7,61.5,30.09,South,172,1.2,0.0,96,0.00,OVC,,0.00,69.0,WeatherDisplay:10.37,2013-08-19 13:07:00,
2013-08-19 09:12:00,63.2,61.4,30.09,South,172,3.5,3.5,94,0.00,OVC,,0.00,111.0,WeatherDisplay:10.37,2013-08-19 13:12:00,
2013-08-19 09:17:00,63.9,61.2,30.09,SW,227,3.5,3.5,91,0.00,OVC,,0.00,79.0,WeatherDisplay:10.37,2013-08-19 13:17:00,
2013-08-19 09:22:00,64.7,61.1,30.09,SW,234,4.0,4.0,88,0.00,OVC,,0.00,77.0,WeatherDisplay:10.37,2013-08-19 13:22:00,
2013-08-19 09:27:00,65.5,60.9,30.09,SSW,209,3.0,3.0,85,0.00,OVC,,0.00,91.0,WeatherDisplay:10.37,2013-08-19 13:27:00,
2013-08-19 09:32:00,66.4,61.4,30.09,SW,234,2.3,2.3,84,0.00,OVC,,0.00,95.0,WeatherDisplay:10.37,2013-08-19 13:32:00,
2013-08-19 09:37:00,67.2,62.2,30.09,SSW,207,4.0,4.0,84,0.00,OVC,,0.00,139.0,WeatherDisplay:10.37,2013-08-19 13:37:00,
2013-08-19 09:42:00,67.9,61.9,30.09,SW,227,2.3,2.3,81,0.00,OVC,,0.00,267.0,WeatherDisplay:10.37,2013-08-19 13:42:00,
2013-08-19 09:47:00,68.5,62.1,30.09,WSW,248,3.5,3.5,80,0.00,OVC,,0.00,396.0,WeatherDisplay:10.37,2013-08-19 13:47:00,
2013-08-19 09:52:00,69.1,61.9,30.09,SW,223,2.3,0.0,78,0.00,OVC,,0.00,410.0,WeatherDisplay:10.37,2013-08-19 13:52:00,
2013-08-19 09:57:00,69.9,62.7,30.09,SW,236,4.6,4.6,78,0.00,OVC,,0.00,427.0,WeatherDisplay:10.37,2013-08-19 13:57:00,
2013-08-19 10:02:00,70.4,62.5,30.09,SW,235,3.5,3.5,76,0.00,OVC,,0.00,441.0,WeatherDisplay:10.37,2013-08-19 14:02:00,
2013-08-19 10:07:00,70.8,62.5,30.08,WNW,298,3.5,3.5,75,0.00,OVC,,0.00,455.0,WeatherDisplay:10.37,2013-08-19 14:07:00,
2013-08-19 10:12:00,71.3,64.4,30.08,WSW,249,4.0,4.0,79,0.00,OVC,,0.00,475.0,WeatherDisplay:10.37,2013-08-19 14:12:00,
2013-08-19 10:17:00,71.9,63.2,30.09,SSW,196,3.5,3.5,74,0.00,OVC,,0.00,489.0,WeatherDisplay:10.37,2013-08-19 14:17:00,
2013-08-19 10:22:00,72.5,64.1,30.09,SW,225,4.0,4.0,75,0.00,OVC,,0.00,506.0,WeatherDisplay:10.37,2013-08-19 14:22:00,
2013-08-19 10:27:00,73.0,63.4,30.09,SSW,194,4.6,4.6,72,0.00,OVC,,0.00,513.0,WeatherDisplay:10.37,2013-08-19 14:27:00,
2013-08-19 10:32:00,73.5,63.9,30.09,SW,221,6.0,6.0,72,0.00,OVC,,0.00,524.0,WeatherDisplay:10.37,2013-08-19 14:32:00,
2013-08-19 10:37:00,73.7,63.7,30.08,SSW,204,5.8,5.8,71,0.00,OVC,,0.00,536.0,WeatherDisplay:10.37,2013-08-19 14:37:00,
2013-08-19 10:42:00,73.7,64.5,30.08,SW,217,4.0,4.2,73,0.00,OVC,,0.00,550.0,WeatherDisplay:10.37,2013-08-19 14:42:00,
2013-08-19 10:47:00,74.2,64.6,30.08,SSW,211,3.0,3.0,72,0.00,OVC,,0.00,566.0,WeatherDisplay:10.37,2013-08-19 14:47:00,
2013-08-19 10:52:00,74.4,64.0,30.08,WSW,244,6.0,6.0,70,0.00,OVC,,0.00,582.0,WeatherDisplay:10.37,2013-08-19 14:52:00,
2013-08-19 10:57:00,74.6,65.4,30.08,WSW,244,6.0,6.0,73,0.00,OVC,,0.00,598.0,WeatherDisplay:10.37,2013-08-19 14:57:00,
2013-08-19 11:02:00,75.1,65.9,30.08,West,277,3.5,3.5,73,0.00,OVC,,0.00,612.0,WeatherDisplay:10.37,2013-08-19 15:02:00,
2013-08-19 11:07:00,75.5,64.6,30.07,West,265,5.0,5.0,69,0.00,OVC,,0.00,628.0,WeatherDisplay:10.37,2013-08-19 15:07:00,
2013-08-19 11:12:00,75.5,64.2,30.07,South,182,3.5,3.5,68,0.00,OVC,,0.00,642.0,WeatherDisplay:10.37,2013-08-19 15:12:00,
2013-08-19 11:17:00,75.8,64.9,30.07,SW,225,3.5,3.5,69,0.00,OVC,,0.00,649.0,WeatherDisplay:10.37,2013-08-19 15:17:00,
2013-08-19 11:22:00,76.1,64.8,30.07,SW,231,5.8,5.8,68,0.00,OVC,,0.00,666.0,WeatherDisplay:10.37,2013-08-19 15:22:00,
2013-08-19 11:28:00,76.4,64.6,30.07,SSW,213,4.6,4.6,67,0.00,OVC,,0.00,680.0,WeatherDisplay:10.37,2013-08-19 15:28:00,
2013-08-19 11:33:00,76.6,64.0,30.07,SW,219,4.6,4.6,65,0.00,OVC,,0.00,693.0,WeatherDisplay:10.37,2013-08-19 15:33:00,
2013-08-19 11:38:00,76.6,63.5,30.07,WSW,254,4.6,4.6,64,0.00,OVC,,0.00,707.0,WeatherDisplay:10.37,2013-08-19 15:38:00,
2013-08-19 11:43:00,76.9,63.8,30.08,NW,304,6.9,6.9,64,0.00,OVC,,0.00,719.0,WeatherDisplay:10.37,2013-08-19 15:43:00,
2013-08-19 11:48:00,77.1,64.9,30.08,SSW,212,4.6,4.6,66,0.00,CLR,,0.00,731.0,WeatherDisplay:10.37,2013-08-19 15:48:00,
2013-08-19 11:53:00,77.0,63.9,30.08,WNW,292,6.9,6.9,64,0.00,CLR,,0.00,738.0,WeatherDisplay:10.37,2013-08-19 15:53:00,
2013-08-19 11:58:00,76.8,63.7,30.08,SW,234,9.0,9.0,64,0.00,CLR,,0.00,737.0,WeatherDisplay:10.37,2013-08-19 15:58:00,
2013-08-19 12:03:00,76.8,62.8,30.08,SW,215,6.9,6.9,62,0.00,CLR,,0.00,763.0,WeatherDisplay:10.37,2013-08-19 16:03:00,
2013-08-19 12:08:00,77.3,64.6,30.08,WSW,252,9.2,9.2,65,0.00,CLR,,0.00,758.0,WeatherDisplay:10.37,2013-08-19 16:08:00,
2013-08-19 12:13:00,77.5,64.4,30.08,NW,311,8.1,8.1,64,0.00,CLR,,0.00,735.0,WeatherDisplay:10.37,2013-08-19 16:13:00,
2013-08-19 12:18:00,77.2,63.2,30.08,NW,307,8.1,8.1,62,0.00,CLR,,0.00,791.0,WeatherDisplay:10.37,2013-08-19 16:18:00,
2013-08-19 12:23:00,77.1,61.7,30.08,SW,231,6.0,6.0,59,0.00,CLR,,0.00,773.0,WeatherDisplay:10.37,2013-08-19 16:23:00,
2013-08-19 12:28:00,77.2,62.7,30.08,WNW,284,3.5,3.5,61,0.00,CLR,,0.00,816.0,WeatherDisplay:10.37,2013-08-19 16:28:00,
2013-08-19 12:33:00,77.3,63.3,30.08,West,268,6.9,6.9,62,0.00,CLR,,0.00,812.0,WeatherDisplay:10.37,2013-08-19 16:33:00,
2013-08-19 12:38:00,77.6,61.2,30.08,WSW,250,5.8,5.8,57,0.00,CLR,,0.00,828.0,WeatherDisplay:10.37,2013-08-19 16:38:00,
2013-08-19 12:43:00,78.0,62.0,30.08,WSW,250,4.6,4.6,58,0.00,CLR,,0.00,817.0,WeatherDisplay:10.37,2013-08-19 16:43:00,
2013-08-19 12:48:00,78.2,62.7,30.08,SSW,196,6.9,6.9,59,0.00,CLR,,0.00,823.0,WeatherDisplay:10.37,2013-08-19 16:48:00,
2013-08-19 12:53:00,78.5,59.9,30.08,South,183,6.9,6.9,53,0.00,CLR,,0.00,846.0,WeatherDisplay:10.37,2013-08-19 16:53:00,
2013-08-19 12:58:00,78.7,60.7,30.08,West,273,10.4,10.4,54,0.00,CLR,,0.00,826.0,WeatherDisplay:10.37,2013-08-19 16:58:00,
2013-08-19 13:03:00,78.5,61.5,30.08,WNW,286,5.8,5.8,56,0.00,CLR,,0.00,830.0,WeatherDisplay:10.37,2013-08-19 17:03:00,
2013-08-19 13:08:00,78.5,63.5,30.08,WSW,242,3.5,3.5,60,0.00,CLR,,0.00,853.0,WeatherDisplay:10.37,2013-08-19 17:08:00,
2013-08-19 13:13:00,78.5,60.5,30.08,SSW,211,4.6,4.6,54,0.00,CLR,,0.00,853.0,WeatherDisplay:10.37,2013-08-19 17:13:00,
2013-08-19 13:18:00,78.5,63.5,30.07,West,260,6.0,6.0,60,0.00,CLR,,0.00,842.0,WeatherDisplay:10.37,2013-08-19 17:18:00,
2013-08-19 13:23:00,78.7,62.2,30.07,West,273,8.1,8.1,57,0.00,CLR,,0.00,250.0,WeatherDisplay:10.37,2013-08-19 17:23:00,
2013-08-19 13:28:00,78.5,62.5,30.07,WSW,250,4.6,4.6,58,0.00,CLR,,0.00,844.0,WeatherDisplay:10.37,2013-08-19 17:28:00,
2013-08-19 13:33:00,78.5,63.9,30.07,West,273,5.8,5.8,61,0.00,CLR,,0.00,823.0,WeatherDisplay:10.37,2013-08-19 17:33:00,
2013-08-19 13:38:00,78.3,60.8,30.07,West,265,5.8,5.8,55,0.00,CLR,,0.00,863.0,WeatherDisplay:10.37,2013-08-19 17:38:00,
2013-08-19 13:43:00,78.3,62.3,30.07,West,261,5.8,5.8,58,0.00,CLR,,0.00,838.0,WeatherDisplay:10.37,2013-08-19 17:43:00,
2013-08-19 13:48:00,78.3,59.8,30.07,WSW,257,5.8,5.8,53,0.00,CLR,,0.00,842.0,WeatherDisplay:10.37,2013-08-19 17:48:00,
2013-08-19 13:53:00,78.5,60.5,30.07,NW,324,11.5,11.5,54,0.00,CLR,,0.00,847.0,WeatherDisplay:10.37,2013-08-19 17:53:00,
2013-08-19 13:58:00,78.9,59.8,30.07,NW,309,4.6,4.6,52,0.00,CLR,,0.00,846.0,WeatherDisplay:10.37,2013-08-19 17:58:00,
2013-08-19 14:03:00,79.1,59.4,30.07,WNW,287,9.2,9.2,51,0.00,CLR,,0.00,849.0,WeatherDisplay:10.37,2013-08-19 18:03:00,
2013-08-19 14:08:00,79.1,58.9,30.07,WNW,283,10.4,10.4,50,0.00,CLR,,0.00,842.0,WeatherDisplay:10.37,2013-08-19 18:08:00,
2013-08-19 14:13:00,79.2,57.8,30.06,West,261,6.9,6.9,48,0.00,CLR,,0.00,851.0,WeatherDisplay:10.37,2013-08-19 18:13:00,
2013-08-19 14:18:00,79.5,58.1,30.06,South,191,9.2,9.2,48,0.00,CLR,,0.00,838.0,WeatherDisplay:10.37,2013-08-19 18:18:00,
2013-08-19 14:23:00,79.2,56.6,30.06,WNW,291,8.1,8.1,46,0.00,CLR,,0.00,840.0,WeatherDisplay:10.37,2013-08-19 18:23:00,
2013-08-19 14:28:00,79.2,56.0,30.06,West,265,6.9,6.9,45,0.00,CLR,,0.00,844.0,WeatherDisplay:10.37,2013-08-19 18:28:00,
2013-08-19 14:33:00,79.4,55.6,30.06,WSW,240,6.9,6.9,44,0.00,CLR,,0.00,835.0,WeatherDisplay:10.37,2013-08-19 18:33:00,
2013-08-19 14:38:00,79.7,57.7,30.06,NNE,23,3.5,3.5,47,0.00,CLR,,0.00,833.0,WeatherDisplay:10.37,2013-08-19 18:38:00,
2013-08-19 14:43:00,79.7,55.9,30.06,WSW,251,10.0,10.0,44,0.00,CLR,,0.00,828.0,WeatherDisplay:10.37,2013-08-19 18:43:00,
2013-08-19 14:48:00,79.7,56.5,30.06,WSW,253,6.0,6.0,45,0.00,CLR,,0.00,844.0,WeatherDisplay:10.37,2013-08-19 18:48:00,
2013-08-19 14:53:00,80.0,56.7,30.05,NW,312,5.8,5.8,45,0.00,CLR,,0.00,831.0,WeatherDisplay:10.37,2013-08-19 18:53:00,
2013-08-19 14:58:00,80.2,58.1,30.05,WSW,251,4.6,4.6,47,0.00,CLR,,0.00,833.0,WeatherDisplay:10.37,2013-08-19 18:58:00,
2013-08-19 15:03:00,80.3,57.0,30.05,West,274,9.2,9.2,45,0.00,CLR,,0.00,824.0,WeatherDisplay:10.37,2013-08-19 19:03:00,
2013-08-19 15:08:00,80.3,59.4,30.05,SSW,192,6.9,6.9,49,0.00,CLR,,0.00,812.0,WeatherDisplay:10.37,2013-08-19 19:08:00,
2013-08-19 15:13:00,80.5,57.8,30.05,SW,217,9.2,9.2,46,0.00,CLR,,0.00,810.0,WeatherDisplay:10.37,2013-08-19 19:13:00,
2013-08-19 15:18:00,80.6,57.9,30.05,SW,228,7.0,7.0,46,0.00,CLR,,0.00,805.0,WeatherDisplay:10.37,2013-08-19 19:18:00,
2013-08-19 15:23:00,80.8,57.5,30.05,West,276,6.9,6.9,45,0.00,CLR,,0.00,800.0,WeatherDisplay:10.37,2013-08-19 19:23:00,
2013-08-19 15:28:00,80.8,56.2,30.04,North,355,5.8,5.8,43,0.00,CLR,,0.00,793.0,WeatherDisplay:10.37,2013-08-19 19:28:00,
2013-08-19 15:33:00,81.0,57.0,30.04,WSW,243,9.2,9.2,44,0.00,CLR,,0.00,789.0,WeatherDisplay:10.37,2013-08-19 19:33:00,
2013-08-19 15:38:00,81.4,56.1,30.04,SW,227,6.9,6.9,42,0.00,CLR,,0.00,779.0,WeatherDisplay:10.37,2013-08-19 19:38:00,
2013-08-19 15:43:00,81.4,56.8,30.04,NW,309,5.8,5.8,43,0.00,CLR,,0.00,773.0,WeatherDisplay:10.37,2013-08-19 19:43:00,
2013-08-19 15:48:00,81.4,56.1,30.04,WNW,292,3.5,3.5,42,0.00,CLR,,0.00,765.0,WeatherDisplay:10.37,2013-08-19 19:48:00,
2013-08-19 15:53:00,81.7,58.3,30.04,SSW,207,8.1,8.1,45,0.00,CLR,,0.00,751.0,WeatherDisplay:10.37,2013-08-19 19:53:00,
2013-08-19 15:58:00,81.9,57.8,30.04,WSW,242,6.9,6.9,44,0.00,CLR,,0.00,742.0,WeatherDisplay:10.37,2013-08-19 19:58:00,
2013-08-19 16:03:00,81.9,58.5,30.03,SSW,200,6.9,6.9,45,0.00,CLR,,0.00,729.0,WeatherDisplay:10.37,2013-08-19 20:03:00,
2013-08-19 16:08:00,81.8,57.8,30.03,SW,217,6.9,6.9,44,0.00,CLR,,0.00,722.0,WeatherDisplay:10.37,2013-08-19 20:08:00,
2013-08-19 16:13:00,81.9,58.5,30.03,South,188,8.0,8.0,45,0.00,CLR,,0.00,708.0,WeatherDisplay:10.37,2013-08-19 20:13:00,
2013-08-19 16:18:00,81.8,59.0,30.03,SSW,200,11.5,11.5,46,0.00,CLR,,0.00,705.0,WeatherDisplay:10.37,2013-08-19 20:18:00,
2013-08-19 16:23:00,81.4,57.4,30.03,WSW,248,10.4,10.4,44,0.00,CLR,,0.00,691.0,WeatherDisplay:10.37,2013-08-19 20:23:00,
2013-08-19 16:29:00,81.2,56.6,30.03,West,269,8.0,8.0,43,0.00,FEW,,0.00,677.0,WeatherDisplay:10.37,2013-08-19 20:29:00,
2013-08-19 16:34:00,81.2,57.8,30.03,WSW,253,9.2,9.2,45,0.00,FEW,,0.00,659.0,WeatherDisplay:10.37,2013-08-19 20:34:00,
2013-08-19 16:39:00,81.1,58.4,30.03,WSW,254,8.1,8.1,46,0.00,FEW,,0.00,652.0,WeatherDisplay:10.37,2013-08-19 20:39:00,
2013-08-19 16:44:00,81.3,57.3,30.03,WSW,243,8.1,8.1,44,0.00,FEW,,0.00,635.0,WeatherDisplay:10.37,2013-08-19 20:44:00,
2013-08-19 16:49:00,81.6,58.2,30.03,SW,227,6.9,6.9,45,0.00,SCT,,0.00,622.0,WeatherDisplay:10.37,2013-08-19 20:49:00,
2013-08-19 16:54:00,81.9,57.8,30.03,SW,229,11.0,11.0,44,0.00,SCT,,0.00,615.0,WeatherDisplay:10.37,2013-08-19 20:54:00,
2013-08-19 16:59:00,81.5,59.9,30.03,WSW,237,9.2,9.2,48,0.00,SCT,,0.00,605.0,WeatherDisplay:10.37,2013-08-19 20:59:00,
2013-08-19 17:04:00,81.6,59.4,30.02,SSW,211,6.9,6.9,47,0.00,SCT,,0.00,592.0,WeatherDisplay:10.37,2013-08-19 21:04:00,
2013-08-19 17:09:00,81.7,58.3,30.02,WSW,254,7.0,7.0,45,0.00,SCT,,0.00,577.0,WeatherDisplay:10.37,2013-08-19 21:09:00,
2013-08-19 17:14:00,81.6,60.0,30.02,WSW,250,7.0,7.0,48,0.00,SCT,,0.00,566.0,WeatherDisplay:10.37,2013-08-19 21:14:00,
2013-08-19 17:19:00,81.5,58.7,30.02,SW,231,8.1,8.1,46,0.00,SCT,,0.00,548.0,WeatherDisplay:10.37,2013-08-19 21:19:00,
2013-08-19 17:24:00,81.4,59.2,30.02,WSW,254,6.9,6.9,47,0.00,SCT,,0.00,538.0,WeatherDisplay:10.37,2013-08-19 21:24:00,
2013-08-19 17:29:00,81.4,58.6,30.02,WSW,248,10.4,10.4,46,0.00,SCT,,0.00,519.0,WeatherDisplay:10.37,2013-08-19 21:29:00,
2013-08-19 17:34:00,81.4,59.8,30.02,WSW,240,6.9,6.9,48,0.00,SCT,,0.00,503.0,WeatherDisplay:10.37,2013-08-19 21:34:00,
2013-08-19 17:39:00,81.4,58.6,30.02,SW,227,6.9,6.9,46,0.00,SCT,,0.00,487.0,WeatherDisplay:10.37,2013-08-19 21:39:00,
2013-08-19 17:44:00,81.3,58.5,30.02,SSW,204,6.9,6.9,46,0.00,BKN,,0.00,471.0,WeatherDisplay:10.37,2013-08-19 21:44:00,
2013-08-19 17:49:00,81.4,59.2,30.02,WSW,254,5.8,5.8,47,0.00,BKN,,0.00,452.0,WeatherDisplay:10.37,2013-08-19 21:49:00,
2013-08-19 17:54:00,81.3,59.7,30.02,SW,228,9.0,9.0,48,0.00,BKN,,0.00,441.0,WeatherDisplay:10.37,2013-08-19 21:54:00,
2013-08-19 17:59:00,81.2,59.6,30.02,SW,229,6.0,8.0,48,0.00,BKN,,0.00,425.0,WeatherDisplay:10.37,2013-08-19 21:59:00,
2013-08-19 18:04:00,81.2,59.1,30.01,SW,222,2.0,7.0,47,0.00,BKN,,0.00,411.0,WeatherDisplay:10.37,2013-08-19 22:04:00,
2013-08-19 18:09:00,81.2,59.6,30.01,SW,219,6.0,6.0,48,0.00,BKN,,0.00,394.0,WeatherDisplay:10.37,2013-08-19 22:09:00,
2013-08-19 18:14:00,81.2,59.6,30.02,SW,234,3.0,7.0,48,0.00,BKN,,0.00,381.0,WeatherDisplay:10.37,2013-08-19 22:14:00,
2013-08-19 18:19:00,81.1,59.6,30.02,SSW,198,6.9,6.9,48,0.00,BKN,,0.00,367.0,WeatherDisplay:10.37,2013-08-19 22:19:00,
2013-08-19 18:24:00,80.9,58.8,30.02,SW,234,6.0,9.0,47,0.00,BKN,,0.00,318.0,WeatherDisplay:10.37,2013-08-19 22:24:00,
2013-08-19 18:29:00,80.6,58.5,30.01,SW,235,6.0,12.0,47,0.00,BKN,,0.00,125.0,WeatherDisplay:10.37,2013-08-19 22:29:00,
2013-08-19 18:34:00,80.2,58.1,30.01,WSW,237,3.0,8.0,47,0.00,BKN,,0.00,79.0,WeatherDisplay:10.37,2013-08-19 22:34:00,
2013-08-19 18:39:00,79.9,58.4,30.01,SW,236,6.0,12.0,48,0.00,BKN,,0.00,72.0,WeatherDisplay:10.37,2013-08-19 22:39:00,
2013-08-19 18:44:00,79.6,58.8,30.01,WSW,247,3.0,7.0,49,0.00,BKN,,0.00,67.0,WeatherDisplay:10.37,2013-08-19 22:44:00,
2013-08-19 18:49:00,79.3,58.5,30.01,WSW,252,3.0,7.0,49,0.00,BKN,,0.00,62.0,WeatherDisplay:10.37,2013-08-19 22:49:00,
2013-08-19 18:54:00,79.1,58.9,30.01,WSW,245,3.0,7.0,50,0.00,BKN,,0.00,60.0,WeatherDisplay:10.37,2013-08-19 22:54:00,
2013-08-19 18:59:00,78.9,59.2,30.01,West,269,3.5,3.5,51,0.00,BKN,,0.00,56.0,WeatherDisplay:10.37,2013-08-19 22:59:00,
2013-08-19 19:04:00,78.8,58.6,30.01,WSW,244,4.6,4.6,50,0.00,BKN,,0.00,62.0,WeatherDisplay:10.37,2013-08-19 23:04:00,
2013-08-19 19:09:00,78.7,59.6,30.01,West,273,2.3,2.3,52,0.00,CLR,,0.00,53.0,WeatherDisplay:10.37,2013-08-19 23:09:00,
2013-08-19 19:14:00,78.6,59.5,30.01,WSW,256,3.5,3.5,52,0.00,CLR,,0.00,51.0,WeatherDisplay:10.37,2013-08-19 23:14:00,
2013-08-19 19:19:00,78.4,59.3,30.01,WSW,257,2.3,2.5,52,0.00,CLR,,0.00,49.0,WeatherDisplay:10.37,2013-08-19 23:19:00,
2013-08-19 19:24:00,78.2,59.7,30.01,WSW,244,2.3,2.3,53,0.00,BKN,,0.00,49.0,WeatherDisplay:10.37,2013-08-19 23:24:00,
2013-08-19 19:29:00,78.0,60.0,30.01,SW,228,3.5,3.5,54,0.00,CLR,,0.00,42.0,WeatherDisplay:10.37,2013-08-19 23:29:00,
2013-08-19 19:34:00,77.9,60.4,30.01,SW,228,3.5,3.5,55,0.00,CLR,,0.00,40.0,WeatherDisplay:10.37,2013-08-19 23:34:00,
2013-08-19 19:39:00,77.6,60.7,30.01,WSW,242,3.5,3.5,56,0.00,CLR,,0.00,35.0,WeatherDisplay:10.37,2013-08-19 23:39:00,
2013-08-19 19:45:00,77.3,60.4,30.01,WSW,242,3.5,3.5,56,0.00,CLR,,0.00,33.0,WeatherDisplay:10.37,2013-08-19 23:45:00,
2013-08-19 19:50:00,77.1,60.7,30.01,WSW,242,2.3,2.3,57,0.00,CLR,,0.00,30.0,WeatherDisplay:10.37,2013-08-19 23:50:00,
2013-08-19 19:55:00,76.8,60.4,30.01,WSW,242,1.0,3.0,57,0.00,CLR,,0.00,26.0,WeatherDisplay:10.37,2013-08-19 23:55:00,
2013-08-19 20:00:00,76.5,60.6,30.01,WSW,242,1.0,3.0,58,0.00,CLR,,0.00,23.0,WeatherDisplay:10.37,2013-08-20 00:00:00,
2013-08-19 20:05:00,76.2,60.8,30.01,WSW,242,0.0,2.0,59,0.00,CLR,,0.00,21.0,WeatherDisplay:10.37,2013-08-20 00:05:00,
2013-08-19 20:10:00,75.8,61.4,30.01,WSW,242,0.0,2.0,61,0.00,CLR,,0.00,16.0,WeatherDisplay:10.37,2013-08-20 00:10:00,
2013-08-19 20:15:00,75.4,61.9,30.01,WSW,242,0.0,2.0,63,0.00,CLR,,0.00,12.0,WeatherDisplay:10.37,2013-08-20 00:15:00,
2013-08-19 20:20:00,74.8,61.8,30.00,WSW,242,3.5,3.5,64,0.00,CLR,,0.00,9.0,WeatherDisplay:10.37,2013-08-20 00:20:00,
2013-08-19 20:25:00,74.1,61.6,30.01,WSW,242,3.5,3.5,65,0.00,CLR,,0.00,5.0,WeatherDisplay:10.37,2013-08-20 00:25:00,
2013-08-19 20:30:00,73.4,61.8,30.01,WSW,242,2.3,2.3,67,0.00,CLR,,0.00,0.0,WeatherDisplay:10.37,2013-08-20 00:30:00,
2013-08-19 20:35:00,72.8,61.2,30.01,WSW,242,2.3,2.3,67,0.00,CLR,,0.00,0.0,WeatherDisplay:10.37,2013-08-20 00:35:00,
2013-08-19 20:40:00,72.1,61.8,30.01,WSW,242,1.2,1.2,70,0.00,CLR,,0.00,0.0,WeatherDisplay:10.37,2013-08-20 00:40:00,
2013-08-19 20:45:00,71.5,61.6,30.01,WSW,242,0.0,0.0,71,0.00,CLR,,0.00,0.0,WeatherDisplay:10.37,2013-08-20 00:45:00,
2013-08-19 20:50:00,70.8,61.3,30.01,WSW,242,0.0,0.0,72,0.00,CLR,,0.00,0.0,WeatherDisplay:10.37,2013-08-20 00:50:00,
2013-08-19 20:55:00,70.2,61.1,30.01,WSW,242,0.0,0.0,73,0.00,CLR,,0.00,0.0,WeatherDisplay:10.37,2013-08-20 00:55:00,
2013-08-19 21:00:00,69.5,60.8,30.01,WSW,242,0.0,0.0,74,0.00,CLR,,0.00,0.0,WeatherDisplay:10.37,2013-08-20 01:00:00,
2013-08-19 21:05:00,68.9,60.6,30.01,WSW,242,0.0,0.0,75,0.00,CLR,,0.00,0.0,WeatherDisplay:10.37,2013-08-20 01:05:00,
2013-08-19 21:10:00,68.3,60.4,30.01,WSW,242,0.0,0.0,76,0.00,CLR,,0.00,0.0,WeatherDisplay:10.37,2013-08-20 01:10:00,
2013-08-19 21:15:00,67.8,60.7,30.02,WSW,242,0.0,0.0,78,0.00,CLR,,0.00,0.0,WeatherDisplay:10.37,2013-08-20 01:15:00,
2013-08-19 21:20:00,67.4,60.7,30.02,WSW,242,0.0,0.0,79,0.00,CLR,,0.00,0.0,WeatherDisplay:10.37,2013-08-20 01:20:00,
2013-08-19 21:25:00,66.9,60.5,30.02,WSW,242,0.0,0.0,80,0.00,CLR,,0.00,0.0,WeatherDisplay:10.37,2013-08-20 01:25:00,
2013-08-19 21:30:00,66.6,60.9,30.02,WSW,242,0.0,0.0,82,0.00,CLR,,0.00,0.0,WeatherDisplay:10.37,2013-08-20 01:30:00,
2013-08-19 21:35:00,66.2,60.5,30.02,WSW,242,0.0,0.0,82,0.00,CLR,,0.00,0.0,WeatherDisplay:10.37,2013-08-20 01:35:00,
2013-08-19 21:40:00,65.8,60.5,30.02,WSW,242,0.0,0.0,83,0.00,CLR,,0.00,0.0,WeatherDisplay:10.37,2013-08-20 01:40:00,
2013-08-19 21:45:00,65.5,60.5,30.02,WSW,242,0.0,0.0,84,0.00,CLR,,0.00,0.0,WeatherDisplay:10.37,2013-08-20 01:45:00,
2013-08-19 21:50:00,65.2,60.2,30.02,WSW,242,0.0,0.0,84,0.00,CLR,,0.00,0.0,WeatherDisplay:10.37,2013-08-20 01:50:00,
2013-08-19 21:55:00,64.9,59.9,30.03,WSW,242,0.0,0.0,84,0.00,CLR,,0.00,0.0,WeatherDisplay:10.37,2013-08-20 01:55:00,
2013-08-19 22:00:00,64.6,60.0,30.03,WSW,242,0.0,0.0,85,0.00,CLR,,0.00,0.0,WeatherDisplay:10.37,2013-08-20 02:00:00,
2013-08-19 22:05:00,64.3,60.0,30.03,WSW,242,0.0,0.0,86,0.00,CLR,,0.00,0.0,WeatherDisplay:10.37,2013-08-20 02:05:00,
2013-08-19 22:10:00,64.0,60.1,30.03,WSW,242,0.0,0.0,87,0.00,CLR,,0.00,0.0,WeatherDisplay:10.37,2013-08-20 02:10:00,
2013-08-19 22:15:00,63.8,60.5,30.03,WSW,242,0.0,0.0,89,0.00,CLR,,0.00,0.0,WeatherDisplay:10.37,2013-08-20 02:15:00,
2013-08-19 22:27:00,63.5,60.5,30.03,WSW,242,0.0,0.0,90,0.00,CLR,,0.00,0.0,WeatherDisplay:10.37,2013-08-20 02:27:00,
2013-08-19 22:32:00,63.4,60.4,30.03,WSW,242,0.0,0.0,90,0.00,CLR,,0.00,0.0,WeatherDisplay:10.37,2013-08-20 02:32:00,
2013-08-19 22:37:00,63.2,60.2,30.03,WSW,242,0.0,0.0,90,0.00,CLR,,0.00,0.0,WeatherDisplay:10.37,2013-08-20 02:37:00,
2013-08-19 22:42:00,63.0,60.0,30.04,WSW,242,0.0,0.0,90,0.00,CLR,,0.00,0.0,WeatherDisplay:10.37,2013-08-20 02:42:00,
2013-08-19 22:47:00,62.8,59.8,30.03,WSW,242,0.0,0.0,90,0.00,CLR,,0.00,0.0,WeatherDisplay:10.37,2013-08-20 02:47:00,
2013-08-19 22:52:00,62.7,60.0,30.03,WSW,242,0.0,0.0,91,0.00,CLR,,0.00,0.0,WeatherDisplay:10.37,2013-08-20 02:52:00,
2013-08-19 22:57:00,62.6,59.9,30.03,WSW,242,1.2,1.3,91,0.00,CLR,,0.00,0.0,WeatherDisplay:10.37,2013-08-20 02:57:00,
2013-08-19 23:02:00,62.5,60.1,30.03,WSW,242,3.0,3.0,92,0.00,CLR,,0.00,0.0,WeatherDisplay:10.37,2013-08-20 03:02:00,
2013-08-19 23:07:00,62.4,60.0,30.03,WSW,242,3.5,3.5,92,0.00,CLR,,0.00,0.0,WeatherDisplay:10.37,2013-08-20 03:07:00,
2013-08-19 23:12:00,62.4,60.0,30.04,WSW,242,3.5,3.5,92,0.00,CLR,,0.00,0.0,WeatherDisplay:10.37,2013-08-20 03:12:00,
2013-08-19 23:17:00,62.3,59.9,30.04,WSW,242,2.3,2.3,92,0.00,CLR,,0.00,0.0,WeatherDisplay:10.37,2013-08-20 03:17:00,
2013-08-19 23:22:00,62.1,59.7,30.04,WSW,242,2.0,2.0,92,0.00,CLR,,0.00,0.0,WeatherDisplay:10.37,2013-08-20 03:22:00,
2013-08-19 23:27:00,62.0,59.6,30.04,WSW,242,1.2,2.4,92,0.00,CLR,,0.00,0.0,WeatherDisplay:10.37,2013-08-20 03:27:00,
2013-08-19 23:32:00,61.9,59.5,30.04,WSW,242,1.0,1.0,92,0.00,CLR,,0.00,0.0,WeatherDisplay:10.37,2013-08-20 03:32:00,
2013-08-19 23:37:00,61.8,59.5,30.04,WSW,242,0.0,0.0,92,0.00,CLR,,0.00,0.0,WeatherDisplay:10.37,2013-08-20 03:37:00,
2013-08-19 23:42:00,61.6,59.6,30.04,WSW,242,0.0,0.0,93,0.00,CLR,,0.00,0.0,WeatherDisplay:10.37,2013-08-20 03:42:00,
2013-08-19 23:47:00,61.6,59.6,30.04,WSW,242,1.2,1.2,93,0.00,CLR,,0.00,0.0,WeatherDisplay:10.37,2013-08-20 03:47:00,
2013-08-19 23:52:00,61.6,59.6,30.04,WSW,242,1.0,0.0,93,0.00,CLR,,0.00,0.0,WeatherDisplay:10.37,2013-08-20 03:52:00,
2013-08-19 23:57:00,61.5,59.5,30.04,WSW,242,1.2,1.2,93,0.00,CLR,,0.00,0.0,WeatherDisplay:10.37,2013-08-20 03:57:00,